Time;durP1;ratioP1;P1;durP2;ratioP2;P2;SDS_P1;SDS_P2;PMS_P1;PMS_P2;Temp;Humidity;BMP_temperature;BMP_pressure;BME280_temperature;BME280_humidity;BME280_pressure;Samples;Min_cycle;Max_cycle;Signal;HPM_P1;HPM_P2
2022/11/19 00:01:03;;;;;;;2.97;2.77;;;8.20;99.90;;;;;;5013599;28;20455;-62
2022/11/19 00:03:32;;;;;;;5.60;3.60;;;8.30;99.90;;;;;;5013392;28;20435;-62
2022/11/19 00:06:04;;;;;;;3.57;2.73;;;8.30;99.90;;;;;;5013854;28;20828;-62
2022/11/19 00:08:31;;;;;;;2.67;2.47;;;8.20;99.90;;;;;;5014207;28;20486;-62
2022/11/19 00:11:06;;;;;;;3.00;2.57;;;8.20;99.90;;;;;;5013328;28;20439;-62
2022/11/19 00:13:32;;;;;;;5.23;2.70;;;8.20;99.90;;;;;;5013314;28;20453;-62
2022/11/19 00:16:04;;;;;;;3.77;2.63;;;8.10;99.90;;;;;;5013371;28;20471;-61
2022/11/19 00:18:31;;;;;;;2.50;2.30;;;8.00;99.90;;;;;;5013238;28;20490;-63
2022/11/19 00:21:06;;;;;;;2.80;2.60;;;8.00;99.90;;;;;;5013093;28;20447;-62
2022/11/19 00:23:34;;;;;;;3.40;2.57;;;8.10;99.90;;;;;;5013112;28;20929;-62
2022/11/19 00:26:11;;;;;;;4.33;3.20;;;8.20;99.90;;;;;;5013531;28;20862;-62
2022/11/19 00:28:38;;;;;;;2.30;2.10;;;8.30;99.90;;;;;;5013171;28;20466;-62
2022/11/19 00:31:08;;;;;;;2.87;2.60;;;8.20;99.90;;;;;;5013051;28;20506;-62
2022/11/19 00:33:35;;;;;;;2.40;2.20;;;8.30;99.90;;;;;;5013057;28;20451;-61
2022/11/19 00:36:04;;;;;;;2.80;2.60;;;8.30;99.90;;;;;;5016844;28;20862;-63
2022/11/19 00:38:32;;;;;;;2.53;2.33;;;8.30;99.90;;;;;;5016579;28;20447;-63
2022/11/19 00:40:59;;;;;;;3.63;2.50;;;8.20;99.90;;;;;;5016803;28;20451;-61
2022/11/19 00:46:13;;;;;;;2.90;2.70;;;8.20;99.90;;;;;;5016410;28;20534;-63
2022/11/19 00:48:40;;;;;;;2.97;2.77;;;8.20;99.90;;;;;;5016645;28;20447;-63
2022/11/19 00:51:09;;;;;;;2.47;2.27;;;8.20;99.90;;;;;;5016598;28;20501;-63
2022/11/19 00:53:36;;;;;;;2.97;2.77;;;8.20;99.90;;;;;;5016295;28;20479;-62
2022/11/19 00:56:06;;;;;;;3.17;2.70;;;8.20;99.90;;;;;;5016446;28;20521;-63
2022/11/19 00:58:35;;;;;;;3.10;2.50;;;8.30;99.90;;;;;;5016146;28;20447;-62
2022/11/19 01:01:03;;;;;;;2.63;2.40;;;8.30;99.90;;;;;;5016126;28;20811;-62
2022/11/19 01:03:30;;;;;;;6.80;3.10;;;8.10;99.90;;;;;;5016288;28;20529;-62
2022/11/19 01:05:57;;;;;;;3.07;2.77;;;8.20;99.90;;;;;;5016564;28;20475;-62
2022/11/19 01:08:25;;;;;;;2.67;2.47;;;8.10;99.90;;;;;;5015842;28;20501;-62
2022/11/19 01:10:52;;;;;;;2.80;2.60;;;8.10;99.90;;;;;;5016197;28;20946;-62
2022/11/19 01:13:35;;;;;;;3.43;2.90;;;8.00;99.90;;;;;;5015865;28;20443;-62
2022/11/19 01:16:06;;;;;;;2.73;2.53;;;8.10;99.90;;;;;;5016096;28;20475;-63
2022/11/19 01:18:33;;;;;;;3.33;3.03;;;8.00;99.90;;;;;;5016285;28;20490;-63
2022/11/19 01:21:01;;;;;;;2.33;2.13;;;8.10;99.90;;;;;;5016206;28;20479;-62
2022/11/19 01:23:28;;;;;;;3.20;2.27;;;8.00;99.90;;;;;;5015944;28;20922;-63
2022/11/19 01:25:56;;;;;;;2.83;2.63;;;8.00;99.90;;;;;;5015891;28;20467;-63
2022/11/19 01:28:24;;;;;;;2.30;2.10;;;7.90;99.90;;;;;;5015582;28;20858;-62
2022/11/19 01:30:51;;;;;;;2.57;2.37;;;7.90;99.90;;;;;;5015535;28;20447;-61
2022/11/19 01:33:21;;;;;;;2.97;2.63;;;8.00;99.90;;;;;;5015521;28;20481;-63
2022/11/19 01:35:55;;;;;;;3.60;2.43;;;8.00;99.90;;;;;;5016053;28;20485;-62
2022/11/19 01:38:23;;;;;;;2.70;2.50;;;7.80;99.90;;;;;;5015480;28;20431;-62
2022/11/19 01:40:50;;;;;;;2.37;2.17;;;7.90;99.90;;;;;;5015367;28;20479;-62
2022/11/19 01:43:18;;;;;;;2.17;2.07;;;7.80;99.90;;;;;;5015267;28;20981;-63
2022/11/19 01:45:48;;;;;;;2.17;2.07;;;7.70;99.90;;;;;;5015002;28;20865;-63
2022/11/19 01:48:22;;;;;;;2.83;2.40;;;7.70;99.90;;;;;;5015604;28;20806;-62
2022/11/19 01:50:52;;;;;;;2.40;2.20;;;7.70;99.90;;;;;;5015646;28;20420;-63
2022/11/19 01:53:22;;;;;;;3.70;2.43;;;7.70;99.90;;;;;;5015491;28;20493;-63
2022/11/19 01:55:51;;;;;;;4.70;3.30;;;7.70;99.90;;;;;;5015030;28;20467;-62
2022/11/19 01:58:24;;;;;;;2.60;2.40;;;7.70;99.90;;;;;;5015135;28;20443;-62
2022/11/19 02:00:51;;;;;;;2.53;2.30;;;7.70;99.90;;;;;;5015033;28;20438;-62
2022/11/19 02:03:20;;;;;;;4.80;2.20;;;7.70;99.90;;;;;;5014891;28;20479;-61
2022/11/19 02:05:52;;;;;;;2.57;2.30;;;7.70;99.90;;;;;;5015608;28;20475;-62
2022/11/19 02:08:39;;;;;;;3.00;2.40;;;7.70;99.90;;;;;;5014899;28;20478;-61
2022/11/19 02:11:48;;;;;;;4.60;2.50;;;7.70;99.90;;;;;;5014866;28;20921;-62
2022/11/19 02:14:28;;;;;;;3.23;2.90;;;7.70;99.90;;;;;;5014722;28;20505;-63
2022/11/19 02:17:03;;;;;;;2.80;2.60;;;7.60;99.90;;;;;;5015097;28;20443;-62
2022/11/19 02:20:13;;;;;;;3.93;2.10;;;7.60;99.90;;;;;;5014922;28;20431;-62
2022/11/19 02:23:05;;;;;;;5.27;2.30;;;7.70;99.90;;;;;;5001786;28;20482;-63
2022/11/19 02:25:52;;;;;;;3.13;2.17;;;7.70;99.90;;;;;;5014867;28;20550;-63
2022/11/19 02:28:34;;;;;;;2.60;1.90;;;7.60;99.90;;;;;;5014922;28;20489;-63
2022/11/19 02:31:08;;;;;;;2.43;2.10;;;7.50;99.90;;;;;;5014540;28;20470;-63
2022/11/19 02:33:42;;;;;;;2.00;1.90;;;7.40;99.90;;;;;;5014856;28;20493;-63
2022/11/19 02:36:17;;;;;;;2.30;2.10;;;7.50;99.90;;;;;;5014881;28;20826;-62
2022/11/19 02:38:50;;;;;;;2.10;2.00;;;7.60;99.90;;;;;;5014430;28;20458;-61
2022/11/19 02:41:35;;;;;;;7.03;3.40;;;7.60;99.90;;;;;;5014380;28;20468;-61
2022/11/19 02:47:06;;;;;;;5.23;2.67;;;7.60;99.90;;;;;;5014389;28;20557;-62
2022/11/19 02:49:38;;;;;;;2.50;2.30;;;7.60;99.90;;;;;;5014574;28;20466;-62
2022/11/19 02:52:05;;;;;;;1.90;1.80;;;7.60;99.90;;;;;;5014482;28;20524;-61
2022/11/19 02:54:33;;;;;;;2.60;2.40;;;7.60;99.90;;;;;;5014058;28;20836;-62
2022/11/19 02:57:01;;;;;;;2.10;2.00;;;7.60;99.90;;;;;;5013916;28;20451;-61
2022/11/19 03:05:11;;;;;;;2.03;1.93;;;7.70;99.90;;;;;;5014259;28;20466;-62
2022/11/19 03:07:38;;;;;;;2.33;2.13;;;7.70;99.90;;;;;;5014022;28;20470;-63
2022/11/19 03:10:09;;;;;;;3.03;1.80;;;7.70;99.90;;;;;;5013729;28;20981;-62
2022/11/19 03:12:47;;;;;;;3.17;2.00;;;7.80;99.90;;;;;;5013840;28;20489;-63
2022/11/19 03:18:17;;;;;;;2.30;2.10;;;7.90;99.90;;;;;;5014213;28;20458;-63
2022/11/19 03:20:51;;;;;;;1.90;1.80;;;8.00;99.90;;;;;;5013830;28;20435;-62
2022/11/19 03:23:23;;;;;;;7.37;2.50;;;8.00;99.90;;;;;;5013706;28;21043;-62
2022/11/19 03:25:56;;;;;;;2.63;2.17;;;8.00;99.90;;;;;;5013887;28;20466;-62
2022/11/19 03:28:29;;;;;;;3.00;2.20;;;7.90;99.90;;;;;;5013735;28;20919;-61
2022/11/19 03:30:59;;;;;;;2.33;2.13;;;7.90;99.90;;;;;;5013755;28;20518;-63
2022/11/19 03:33:31;;;;;;;2.50;1.93;;;7.90;99.90;;;;;;5013677;28;20470;-62
2022/11/19 03:36:02;;;;;;;2.13;1.93;;;7.80;99.90;;;;;;5014075;28;20482;-62
2022/11/19 03:38:33;;;;;;;6.67;2.20;;;7.90;99.90;;;;;;5013628;28;20443;-62
2022/11/19 03:41:02;;;;;;;2.27;1.90;;;8.00;99.90;;;;;;5013658;28;20454;-62
2022/11/19 03:43:33;;;;;;;3.17;2.10;;;7.90;99.90;;;;;;5013470;28;20489;-62
2022/11/19 03:46:03;;;;;;;2.43;2.23;;;7.90;99.90;;;;;;5013546;28;20503;-62
2022/11/19 03:48:32;;;;;;;2.00;1.90;;;7.90;99.90;;;;;;5013541;28;20882;-62
2022/11/19 03:51:04;;;;;;;1.90;1.70;;;7.90;99.90;;;;;;5013848;28;20482;-62
2022/11/19 03:53:32;;;;;;;3.23;2.40;;;8.00;99.90;;;;;;5013668;28;20428;-63
2022/11/19 03:56:03;;;;;;;1.63;1.53;;;8.10;99.90;;;;;;5013373;28;20517;-63
2022/11/19 03:58:36;;;;;;;2.77;2.30;;;8.10;99.90;;;;;;5013533;28;20431;-62
2022/11/19 04:01:03;;;;;;;3.33;1.90;;;8.10;99.90;;;;;;5013784;28;20432;-62
2022/11/19 04:03:32;;;;;;;4.67;2.17;;;8.20;99.90;;;;;;5013459;28;20497;-61
2022/11/19 04:05:59;;;;;;;4.17;2.17;;;8.10;99.90;;;;;;5013831;28;20478;-61
2022/11/19 04:08:27;;;;;;;2.10;1.90;;;8.10;99.90;;;;;;5013656;28;20506;-62
2022/11/19 04:10:54;;;;;;;2.57;2.10;;;8.10;99.90;;;;;;5016708;28;20434;-62
2022/11/19 04:13:21;;;;;;;2.63;1.80;;;8.10;99.90;;;;;;5017399;28;20450;-61
2022/11/19 04:15:49;;;;;;;2.97;2.67;;;8.00;99.90;;;;;;5017410;28;20474;-61
2022/11/19 04:18:16;;;;;;;3.73;2.90;;;8.00;99.90;;;;;;5016947;28;20550;-62
2022/11/19 04:20:46;;;;;;;2.50;2.30;;;8.10;99.90;;;;;;5016935;28;20457;-63
2022/11/19 04:23:13;;;;;;;3.07;2.27;;;8.20;99.90;;;;;;5017131;28;20483;-61
2022/11/19 04:25:45;;;;;;;2.57;2.37;;;8.10;99.90;;;;;;5017079;28;20474;-62
2022/11/19 04:28:13;;;;;;;2.50;2.30;;;8.10;99.90;;;;;;5016847;28;20926;-62
2022/11/19 04:30:40;;;;;;;2.10;1.90;;;8.00;99.90;;;;;;5016737;28;20976;-61
2022/11/19 04:33:07;;;;;;;2.20;2.00;;;8.00;99.90;;;;;;5016964;28;20477;-62
2022/11/19 04:35:35;;;;;;;2.13;1.93;;;8.00;99.90;;;;;;5016942;28;20544;-60
2022/11/19 04:38:03;;;;;;;2.43;2.23;;;8.10;99.90;;;;;;5016877;28;20813;-61
2022/11/19 04:40:31;;;;;;;2.53;2.33;;;8.00;99.90;;;;;;5016582;28;20509;-62
2022/11/19 04:42:58;;;;;;;2.47;2.23;;;8.00;99.90;;;;;;5017230;28;20533;-63
2022/11/19 04:45:25;;;;;;;3.77;3.00;;;8.10;99.90;;;;;;5016403;28;20506;-63
2022/11/19 04:47:52;;;;;;;2.90;2.10;;;8.00;99.90;;;;;;5016491;28;20443;-61
2022/11/19 04:50:20;;;;;;;4.83;2.10;;;7.90;99.90;;;;;;5017127;28;20459;-61
2022/11/19 04:52:47;;;;;;;2.30;2.10;;;7.90;99.90;;;;;;5016285;28;20443;-63
2022/11/19 04:55:16;;;;;;;2.30;2.10;;;8.00;99.90;;;;;;5016224;28;20922;-63
2022/11/19 04:57:44;;;;;;;2.80;2.30;;;7.90;99.90;;;;;;5016438;28;20455;-62
2022/11/19 05:00:12;;;;;;;2.47;2.27;;;7.90;99.90;;;;;;5016164;28;20455;-62
2022/11/19 05:02:39;;;;;;;2.73;2.53;;;7.90;99.90;;;;;;5016087;28;20490;-61
2022/11/19 05:05:08;;;;;;;3.60;2.60;;;8.00;99.90;;;;;;5016569;28;20986;-62
2022/11/19 05:07:35;;;;;;;3.00;2.33;;;7.90;99.90;;;;;;5017200;28;20479;-62
2022/11/19 05:10:04;;;;;;;4.60;2.57;;;8.00;99.90;;;;;;5016024;28;20930;-62
2022/11/19 05:12:33;;;;;;;2.17;2.07;;;8.00;99.90;;;;;;5016844;28;20458;-62
2022/11/19 05:15:00;;;;;;;3.13;2.83;;;8.00;99.90;;;;;;5016157;28;20471;-61
2022/11/19 05:17:27;;;;;;;2.77;2.30;;;8.10;99.90;;;;;;5016161;28;20501;-62
2022/11/19 05:19:54;;;;;;;2.40;2.20;;;8.10;99.90;;;;;;5016125;28;20509;-63
2022/11/19 05:22:23;;;;;;;3.20;2.63;;;8.00;99.90;;;;;;5015116;28;20451;-62
2022/11/19 05:24:50;;;;;;;3.57;2.67;;;8.10;99.90;;;;;;5016096;28;20487;-62
2022/11/19 05:27:17;;;;;;;2.73;2.53;;;8.10;99.90;;;;;;5016419;28;20509;-61
2022/11/19 05:29:46;;;;;;;3.43;2.33;;;8.20;99.90;;;;;;5015709;28;20483;-62
2022/11/19 05:32:13;;;;;;;3.43;2.63;;;8.10;99.90;;;;;;5015605;28;20451;-62
2022/11/19 05:34:41;;;;;;;2.43;2.20;;;8.20;99.90;;;;;;5015694;28;20921;-61
2022/11/19 05:37:08;;;;;;;2.77;2.57;;;8.20;99.90;;;;;;5015848;28;20506;-62
2022/11/19 05:39:35;;;;;;;4.00;2.30;;;8.30;99.90;;;;;;5015795;28;20447;-62
2022/11/19 05:42:03;;;;;;;2.90;2.37;;;8.20;99.90;;;;;;5015406;28;20447;-61
2022/11/19 05:44:30;;;;;;;3.77;2.70;;;8.10;99.90;;;;;;5015256;28;20521;-61
2022/11/19 05:46:59;;;;;;;2.30;2.00;;;8.20;99.90;;;;;;5015347;28;20451;-62
2022/11/19 05:49:26;;;;;;;3.80;2.30;;;8.20;99.90;;;;;;5015249;28;21006;-61
2022/11/19 05:51:53;;;;;;;3.43;2.60;;;8.20;99.90;;;;;;5015481;28;20447;-62
2022/11/19 05:54:21;;;;;;;2.27;2.00;;;8.20;99.90;;;;;;5015532;28;20462;-62
2022/11/19 05:56:48;;;;;;;3.60;2.57;;;8.20;99.90;;;;;;5015007;28;20521;-63
2022/11/19 05:59:15;;;;;;;3.10;2.80;;;8.20;99.90;;;;;;5015055;28;20455;-62
2022/11/19 06:01:43;;;;;;;2.63;2.43;;;8.10;99.90;;;;;;5015035;28;20451;-62
2022/11/19 06:04:12;;;;;;;2.67;2.43;;;8.10;99.90;;;;;;5014924;28;20482;-61
2022/11/19 06:06:39;;;;;;;4.30;2.27;;;8.10;99.90;;;;;;5014900;28;20505;-62
2022/11/19 06:09:07;;;;;;;2.43;2.23;;;8.10;99.90;;;;;;5014329;28;20529;-63
2022/11/19 06:11:50;;;;;;;3.70;3.23;;;8.10;99.90;;;;;;5015111;28;20451;-62
2022/11/19 06:14:20;;;;;;;4.10;2.50;;;8.20;99.90;;;;;;5015152;28;20446;-61
2022/11/19 06:16:48;;;;;;;2.43;2.30;;;8.20;99.90;;;;;;5014752;28;20463;-61
2022/11/19 06:19:17;;;;;;;3.60;2.10;;;8.20;99.90;;;;;;5014742;28;20498;-61
2022/11/19 06:21:44;;;;;;;2.73;2.23;;;8.20;99.90;;;;;;5014666;28;20456;-61
2022/11/19 06:24:13;;;;;;;2.63;2.43;;;8.20;99.90;;;;;;5014855;28;20533;-63
2022/11/19 06:26:41;;;;;;;2.83;2.10;;;8.20;99.90;;;;;;5014479;28;20467;-62
2022/11/19 06:29:09;;;;;;;2.40;2.20;;;8.20;99.90;;;;;;5014808;28;20457;-61
2022/11/19 06:31:36;;;;;;;2.47;2.30;;;8.10;99.90;;;;;;5014531;28;20454;-63
2022/11/19 06:34:04;;;;;;;2.70;2.50;;;8.10;99.90;;;;;;5014295;28;20451;-62
2022/11/19 06:36:32;;;;;;;2.63;2.30;;;8.00;99.90;;;;;;5014343;28;20471;-61
2022/11/19 06:39:00;;;;;;;2.93;2.50;;;8.00;99.90;;;;;;5014374;28;20443;-62
2022/11/19 06:41:28;;;;;;;2.23;2.03;;;8.00;99.90;;;;;;5014682;28;20452;-63
2022/11/19 06:43:55;;;;;;;2.53;2.33;;;8.00;99.90;;;;;;5014503;28;20482;-62
2022/11/19 06:46:23;;;;;;;3.10;2.63;;;7.90;99.90;;;;;;5014170;28;20471;-61
2022/11/19 06:48:50;;;;;;;2.70;2.50;;;7.90;99.90;;;;;;5014192;28;20490;-61
2022/11/19 06:51:17;;;;;;;3.03;2.83;;;7.80;99.90;;;;;;5014487;28;20537;-61
2022/11/19 06:53:46;;;;;;;2.97;2.70;;;7.90;99.90;;;;;;5014421;28;20455;-62
2022/11/19 06:56:13;;;;;;;3.23;2.93;;;7.90;99.90;;;;;;5014048;28;20533;-63
2022/11/19 06:58:41;;;;;;;2.57;2.20;;;7.90;99.90;;;;;;5014151;28;20447;-62
2022/11/19 07:01:08;;;;;;;2.50;2.30;;;7.90;99.90;;;;;;5014326;28;20871;-61
2022/11/19 07:03:35;;;;;;;2.90;2.60;;;7.90;99.90;;;;;;5014195;28;20533;-62
2022/11/19 07:06:04;;;;;;;2.80;2.50;;;8.00;99.90;;;;;;5014573;28;20981;-61
2022/11/19 07:08:34;;;;;;;2.93;2.70;;;8.00;99.90;;;;;;5013713;28;20483;-62
2022/11/19 07:11:24;;;;;;;3.50;2.93;;;8.00;99.90;;;;;;5014382;28;20469;-62
2022/11/19 07:13:57;;;;;;;8.33;3.20;;;7.90;99.90;;;;;;5013781;28;20439;-61
2022/11/19 07:16:26;;;;;;;3.10;2.80;;;8.00;99.90;;;;;;5014269;28;20874;-62
2022/11/19 07:18:53;;;;;;;6.60;3.17;;;7.90;99.90;;;;;;5013894;28;20501;-61
2022/11/19 07:21:20;;;;;;;3.20;2.90;;;7.90;99.90;;;;;;5013938;28;20505;-62
2022/11/19 07:23:48;;;;;;;3.03;2.77;;;7.90;99.90;;;;;;5013641;28;20529;-62
2022/11/19 07:26:17;;;;;;;4.17;3.00;;;7.80;99.90;;;;;;5013660;28;20993;-62
2022/11/19 07:28:44;;;;;;;2.60;2.40;;;7.90;99.90;;;;;;5013962;28;20447;-63
2022/11/19 07:31:11;;;;;;;3.40;3.10;;;7.80;99.90;;;;;;5013634;28;20455;-63
2022/11/19 07:33:39;;;;;;;3.30;3.00;;;7.80;99.90;;;;;;5013765;28;20938;-62
2022/11/19 07:36:07;;;;;;;3.17;2.90;;;7.80;99.90;;;;;;5014084;28;20509;-62
2022/11/19 07:38:36;;;;;;;3.13;2.70;;;7.80;99.90;;;;;;5013807;28;20454;-63
2022/11/19 07:42:47;;;;;;;4.53;3.53;;;7.90;99.90;;;;;;5014012;28;20789;-63
2022/11/19 07:43:53;;;;;;;3.20;2.90;;;8.00;99.90;;;;;;5013520;28;20466;-62
2022/11/19 07:46:21;;;;;;;4.13;3.17;;;8.00;99.90;;;;;;5017507;28;20471;-61
2022/11/19 07:48:51;;;;;;;3.60;3.10;;;8.20;99.90;;;;;;5017357;28;20543;-62
2022/11/19 07:51:19;;;;;;;3.40;3.10;;;8.30;99.90;;;;;;5017627;28;20451;-61
2022/11/19 07:53:46;;;;;;;3.07;2.87;;;8.20;99.90;;;;;;5017204;28;20442;-63
2022/11/19 07:56:13;;;;;;;2.23;2.03;;;8.30;99.90;;;;;;5016897;28;20498;-64
2022/11/19 07:58:41;;;;;;;2.43;2.23;;;10.30;99.90;;;;;;5017445;28;20507;-62
2022/11/19 08:01:10;;;;;;;2.30;2.10;;;12.00;99.90;;;;;;5017065;28;20533;-62
2022/11/19 08:03:40;;;;;;;4.67;2.20;;;13.00;99.90;;;;;;5017499;28;20479;-63
2022/11/19 08:06:08;;;;;;;2.30;2.10;;;14.10;99.90;;;;;;5017422;28;20486;-62
2022/11/19 08:08:36;;;;;;;2.90;2.00;;;;;;;;;;5015841;28;20577;-64
2022/11/19 08:11:04;;;;;;;2.60;2.40;;;14.40;99.90;;;;;;5016767;28;20435;-63
2022/11/19 08:13:32;;;;;;;3.30;2.00;;;13.40;99.90;;;;;;4999872;28;21009;-63
2022/11/19 08:16:00;;;;;;;2.50;2.30;;;13.80;99.90;;;;;;4997326;28;20827;-64
2022/11/19 08:18:28;;;;;;;3.00;2.00;;;14.10;99.90;;;;;;4997512;28;20498;-64
2022/11/19 08:20:56;;;;;;;2.30;2.10;;;15.00;99.90;;;;;;4997168;28;20531;-67
2022/11/19 08:23:24;;;;;;;2.67;2.20;;;15.50;99.90;;;;;;4996118;28;20539;-63
2022/11/19 08:25:51;;;;;;;3.17;2.30;;;15.40;99.90;;;;;;4996586;28;20558;-64
2022/11/19 08:28:19;;;;;;;1.93;1.83;;;15.70;99.90;;;;;;4995310;28;20467;-64
2022/11/19 08:30:46;;;;;;;4.97;2.17;;;14.60;99.90;;;;;;4995892;28;20462;-64
2022/11/19 08:33:13;;;;;;;2.00;1.80;;;15.10;99.90;;;;;;4994367;28;20483;-60
2022/11/19 08:35:43;;;;;;;2.63;1.90;;;15.70;99.90;;;;;;4994622;28;21086;-63
2022/11/19 08:38:10;;;;;;;2.20;2.00;;;16.10;99.90;;;;;;4994751;28;20447;-63
2022/11/19 08:40:37;;;;;;;2.00;1.80;;;15.50;99.90;;;;;;4995023;28;20477;-62
2022/11/19 08:43:04;;;;;;;2.37;1.80;;;15.00;99.90;;;;;;4994526;28;20455;-62
2022/11/19 08:45:35;;;;;;;2.23;2.00;;;14.60;99.90;;;;;;4994600;28;20487;-61
2022/11/19 08:48:05;;;;;;;2.80;2.07;;;13.70;99.90;;;;;;4994719;28;20445;-62
2022/11/19 08:50:33;;;;;;;3.57;1.93;;;14.20;99.90;;;;;;4995451;28;20456;-62
2022/11/19 08:53:04;;;;;;;2.60;2.40;;;15.20;99.90;;;;;;4996114;28;20926;-63
2022/11/19 08:55:32;;;;;;;3.50;1.83;;;16.10;99.90;;;;;;4996119;28;20559;-63
2022/11/19 08:58:01;;;;;;;2.33;2.13;;;15.80;99.90;;;;;;4996266;28;20455;-60
2022/11/19 09:00:29;;;;;;;3.03;1.90;;;15.40;99.90;;;;;;4996293;28;20463;-67
2022/11/19 09:02:57;;;;;;;2.10;1.80;;;15.40;99.90;;;;;;4996528;28;20459;-65
2022/11/19 09:05:25;;;;;;;4.40;2.07;;;15.80;99.90;;;;;;5022269;28;20526;-59
2022/11/19 09:07:52;;;;;;;4.30;1.87;;;16.00;99.90;;;;;;5035330;28;20929;-61
2022/11/19 09:10:21;;;;;;;2.30;1.80;;;16.60;99.90;;;;;;5017000;28;20541;-58
2022/11/19 09:12:56;;;;;;;2.33;2.10;;;16.40;99.90;;;;;;5017220;28;20471;-58
2022/11/19 09:15:30;;;;;;;3.30;1.73;;;15.90;99.90;;;;;;5020022;28;20996;-58
2022/11/19 09:17:58;;;;;;;1.60;1.50;;;15.30;99.90;;;;;;5016524;28;20446;-59
2022/11/19 09:20:25;;;;;;;1.97;1.80;;;14.30;99.90;;;;;;5027699;28;20453;-57
2022/11/19 09:22:53;;;;;;;3.03;1.70;;;13.10;99.90;;;;;;5016042;28;20490;-59
2022/11/19 09:25:21;;;;;;;3.90;1.80;;;12.70;99.90;;;;;;5008870;28;20499;-59
2022/11/19 09:27:49;;;;;;;3.73;1.90;;;12.80;99.90;;;;;;5003155;28;20551;-60
2022/11/19 09:30:19;;;;;;;1.90;1.70;;;13.20;99.90;;;;;;5005009;28;20451;-60
2022/11/19 09:32:48;;;;;;;1.80;1.70;;;13.20;99.90;;;;;;5005925;28;20930;-57
2022/11/19 09:35:16;;;;;;;3.50;1.73;;;12.30;99.90;;;;;;5007148;28;20476;-64
2022/11/19 09:37:43;;;;;;;3.00;1.70;;;11.60;99.90;;;;;;5004125;28;20443;-57
2022/11/19 09:40:22;;;;;;;5.13;2.20;;;12.30;99.90;;;;;;5004064;28;20547;-56
2022/11/19 09:43:04;;;;;;;2.43;1.67;;;14.00;99.90;;;;;;5003568;28;20488;-60
2022/11/19 09:45:46;;;;;;;2.30;1.70;;;13.70;99.90;;;;;;5002211;28;20976;-57
2022/11/19 09:48:24;;;;;;;3.07;1.90;;;14.20;99.90;;;;;;5002988;28;20479;-58
2022/11/19 09:50:58;;;;;;;1.80;1.70;;;12.80;99.90;;;;;;5003319;28;20462;-59
2022/11/19 09:53:29;;;;;;;2.10;1.90;;;12.10;99.90;;;;;;5004656;28;20447;-55
2022/11/19 09:55:58;;;;;;;1.63;1.53;;;11.20;99.90;;;;;;5004482;28;20466;-56
2022/11/19 09:58:34;;;;;;;1.77;1.67;;;10.60;99.90;;;;;;5004434;28;20458;-56
2022/11/19 10:01:01;;;;;;;1.83;1.73;;;10.50;99.90;;;;;;5003591;28;20465;-58
2022/11/19 10:03:28;;;;;;;2.67;1.87;;;10.20;99.90;;;;;;5003706;28;20525;-59
2022/11/19 10:06:10;;;;;;;4.60;2.77;;;10.00;99.90;;;;;;5004704;28;21000;-59
2022/11/19 10:08:49;;;;;;;2.63;1.57;;;9.90;99.90;;;;;;5003634;28;21414;-57
2022/11/19 10:11:29;;;;;;;1.83;1.60;;;9.70;99.90;;;;;;5004588;28;20929;-62
2022/11/19 10:14:06;;;;;;;2.20;2.00;;;9.70;99.90;;;;;;5003439;28;20475;-57
2022/11/19 10:16:47;;;;;;;3.30;2.10;;;9.70;99.90;;;;;;5004680;28;20467;-59
2022/11/19 10:19:28;;;;;;;2.50;2.20;;;9.60;99.90;;;;;;5004081;28;20440;-59
2022/11/19 10:22:05;;;;;;;2.83;1.93;;;9.60;99.90;;;;;;5003952;28;20941;-57
2022/11/19 10:24:41;;;;;;;2.00;1.90;;;9.60;99.90;;;;;;5004390;28;20470;-55
2022/11/19 10:27:18;;;;;;;1.93;1.80;;;9.60;99.90;;;;;;5003574;28;20891;-56
2022/11/19 10:29:50;;;;;;;4.50;2.60;;;11.00;99.90;;;;;;5003102;28;20497;-59
2022/11/19 10:32:28;;;;;;;2.23;1.97;;;11.20;99.90;;;;;;5003373;28;20444;-58
2022/11/19 10:35:00;;;;;;;3.10;1.90;;;11.10;99.90;;;;;;5003592;28;20476;-59
2022/11/19 10:37:35;;;;;;;2.17;1.73;;;11.60;99.90;;;;;;5003299;28;20505;-62
2022/11/19 10:40:06;;;;;;;4.43;1.73;;;11.60;99.90;;;;;;5004066;28;20508;-62
2022/11/19 10:42:37;;;;;;;2.10;1.90;;;12.30;99.90;;;;;;5004096;28;20514;-56
2022/11/19 10:45:13;;;;;;;2.30;1.80;;;12.20;99.90;;;;;;5003743;28;20907;-61
2022/11/19 10:47:46;;;;;;;2.87;2.40;;;12.00;99.90;;;;;;5003170;28;20938;-55
2022/11/19 10:50:17;;;;;;;3.30;1.77;;;11.80;99.90;;;;;;5004593;28;20455;-55
2022/11/19 10:52:50;;;;;;;4.33;2.00;;;11.90;99.90;;;;;;5003424;28;20852;-57
2022/11/19 10:55:23;;;;;;;3.80;2.17;;;12.00;99.90;;;;;;5003444;28;20675;-55
2022/11/19 10:57:55;;;;;;;2.93;2.10;;;11.80;99.90;;;;;;5002253;28;20447;-59
2022/11/19 11:00:24;;;;;;;5.17;2.50;;;12.00;99.90;;;;;;5003376;28;21048;-60
2022/11/19 11:02:58;;;;;;;4.20;2.30;;;11.70;99.90;;;;;;5005443;28;20455;-60
2022/11/19 11:05:25;;;;;;;4.40;2.03;;;12.70;99.90;;;;;;5010581;28;20491;-61
2022/11/19 11:07:55;;;;;;;2.10;1.90;;;12.10;99.90;;;;;;5012796;28;21531;-58
2022/11/19 11:10:32;;;;;;;5.20;2.17;;;11.80;99.90;;;;;;5010473;28;20949;-58
2022/11/19 11:15:54;;;;;;;2.77;2.57;;;12.10;99.90;;;;;;5010038;28;20446;-57
2022/11/19 11:18:29;;;;;;;2.10;1.90;;;12.10;99.90;;;;;;5011111;28;20909;-59
2022/11/19 11:20:58;;;;;;;4.30;2.53;;;11.90;99.90;;;;;;5011221;28;20447;-57
2022/11/19 11:23:27;;;;;;;2.80;2.10;;;11.70;99.90;;;;;;5011261;28;20498;-61
2022/11/19 11:26:02;;;;;;;3.83;2.77;;;11.80;99.90;;;;;;5012408;28;20539;-55
2022/11/19 11:28:30;;;;;;;1.93;1.80;;;11.90;99.90;;;;;;5009367;28;20493;-55
2022/11/19 11:31:00;;;;;;;2.13;1.93;;;12.00;99.90;;;;;;5010348;28;20518;-57
2022/11/19 11:33:36;;;;;;;2.00;1.60;;;12.40;99.90;;;;;;5009319;28;20474;-58
2022/11/19 11:36:07;;;;;;;2.37;2.17;;;12.10;99.90;;;;;;5006765;28;20478;-58
2022/11/19 11:38:41;;;;;;;2.00;1.53;;;12.30;99.90;;;;;;5012568;28;20994;-55
2022/11/19 11:41:12;;;;;;;8.10;2.10;;;12.10;99.90;;;;;;5012081;28;20533;-59
2022/11/19 11:44:00;;;;;;;3.23;1.73;;;11.30;99.90;;;;;;5013744;28;20539;-67
2022/11/19 11:46:35;;;;;;;1.70;1.60;;;11.20;99.90;;;;;;5013949;28;20482;-64
2022/11/19 11:49:05;;;;;;;2.27;1.80;;;11.50;99.90;;;;;;5025931;28;20882;-60
2022/11/19 11:51:35;;;;;;;2.07;1.87;;;11.10;99.90;;;;;;5027542;28;20870;-57
2022/11/19 11:54:18;;;;;;;2.70;2.10;;;11.40;99.90;;;;;;5026438;28;20453;-59
2022/11/19 11:56:46;;;;;;;2.27;2.07;;;11.70;99.90;;;;;;5011599;28;20542;-56
2022/11/19 11:59:26;;;;;;;1.77;1.67;;;11.20;99.90;;;;;;5001536;28;20456;-59
2022/11/19 12:01:56;;;;;;;2.07;1.87;;;11.10;99.90;;;;;;5002760;28;20455;-57
2022/11/19 12:04:24;;;;;;;3.13;1.80;;;10.90;99.90;;;;;;5001050;28;20468;-57
2022/11/19 12:07:07;;;;;;;1.93;1.80;;;10.90;99.90;;;;;;5000705;28;20535;-57
2022/11/19 12:09:40;;;;;;;7.53;2.53;;;11.20;99.90;;;;;;5002535;28;20525;-57
2022/11/19 12:12:15;;;;;;;4.40;1.80;;;11.60;99.90;;;;;;5002005;28;20448;-57
2022/11/19 12:14:53;;;;;;;1.77;1.67;;;11.80;99.90;;;;;;5001151;28;20451;-59
2022/11/19 12:17:33;;;;;;;3.00;1.83;;;11.90;99.90;;;;;;5000230;28;20513;-59
2022/11/19 12:20:19;;;;;;;2.13;1.93;;;11.30;99.90;;;;;;5001337;28;20493;-58
2022/11/19 12:23:04;;;;;;;3.03;1.93;;;11.40;99.90;;;;;;5006563;28;21202;-58
2022/11/19 12:25:35;;;;;;;3.20;1.80;;;11.10;99.90;;;;;;5006928;28;20487;-59
2022/11/19 12:28:24;;;;;;;2.30;2.10;;;10.70;99.90;;;;;;5009996;28;20941;-59
2022/11/19 12:31:03;;;;;;;2.43;2.17;;;11.30;99.90;;;;;;5010331;28;20527;-56
2022/11/19 12:33:53;;;;;;;2.83;2.23;;;11.60;99.90;;;;;;5013241;28;20937;-58
2022/11/19 12:36:29;;;;;;;3.27;2.70;;;11.50;99.90;;;;;;5009356;28;20525;-58
2022/11/19 12:39:02;;;;;;;4.70;2.47;;;11.40;99.90;;;;;;5007281;28;20471;-59
2022/11/19 12:41:53;;;;;;;3.03;2.27;;;11.30;99.90;;;;;;5012044;28;20498;-60
2022/11/19 12:44:31;;;;;;;2.60;2.00;;;11.50;99.90;;;;;;5008271;28;20452;-60
2022/11/19 12:47:07;;;;;;;2.63;1.90;;;11.70;99.90;;;;;;5015743;28;20557;-60
2022/11/19 12:49:55;;;;;;;2.20;2.10;;;11.10;99.90;;;;;;5014446;28;20984;-61
2022/11/19 12:52:45;;;;;;;2.10;1.90;;;12.00;99.90;;;;;;5014039;28;20447;-61
2022/11/19 12:55:19;;;;;;;2.37;2.00;;;12.00;99.90;;;;;;5012016;28;20471;-62
2022/11/19 12:57:56;;;;;;;2.30;2.10;;;11.90;99.90;;;;;;5013217;28;20504;-60
2022/11/19 13:00:25;;;;;;;3.97;2.00;;;11.70;99.90;;;;;;5012653;28;20489;-60
2022/11/19 13:03:05;;;;;;;2.00;1.90;;;11.50;99.90;;;;;;5012737;28;20494;-60
2022/11/19 13:05:42;;;;;;;6.33;2.47;;;10.90;99.90;;;;;;5005298;28;20486;-60
2022/11/19 13:08:16;;;;;;;2.27;2.03;;;11.00;99.90;;;;;;5005451;28;20511;-60
2022/11/19 13:10:47;;;;;;;2.10;1.90;;;10.70;99.90;;;;;;5003615;28;20880;-61
2022/11/19 13:13:18;;;;;;;1.70;1.50;;;10.90;99.90;;;;;;5004449;28;20899;-61
2022/11/19 13:15:50;;;;;;;1.70;1.60;;;10.90;99.90;;;;;;5006473;28;20491;-61
2022/11/19 13:18:19;;;;;;;2.50;2.30;;;10.80;99.90;;;;;;5003164;28;20444;-61
2022/11/19 13:20:50;;;;;;;1.93;1.83;;;11.00;99.90;;;;;;5006549;28;20942;-61
2022/11/19 13:23:23;;;;;;;3.07;2.00;;;11.10;99.90;;;;;;5011197;28;20521;-61
2022/11/19 13:25:58;;;;;;;2.13;1.93;;;10.80;99.90;;;;;;5005912;28;20859;-61
2022/11/19 13:28:32;;;;;;;3.50;2.00;;;11.30;99.90;;;;;;5005588;28;20455;-62
2022/11/19 13:31:05;;;;;;;3.10;2.07;;;11.30;99.90;;;;;;5004421;28;20451;-60